createdAt,value
2018-05-23T00:02:05.889Z,19.50
2018-05-23T00:04:41.332Z,19.50
2018-05-23T00:07:17.296Z,19.60
2018-05-23T00:09:54.267Z,19.60
2018-05-23T00:12:29.343Z,19.50
2018-05-23T00:15:05.485Z,19.50
2018-05-23T00:17:41.343Z,19.40
2018-05-23T00:20:17.531Z,19.50
2018-05-23T00:22:53.975Z,19.60
2018-05-23T00:25:29.984Z,19.60
2018-05-23T00:28:08.065Z,19.50
2018-05-23T00:30:44.533Z,19.40
2018-05-23T00:33:20.139Z,19.40
2018-05-23T00:35:55.179Z,19.40
2018-05-23T00:38:31.142Z,19.30
2018-05-23T00:41:06.982Z,19.30
2018-05-23T00:43:43.087Z,19.30
2018-05-23T00:46:18.688Z,19.30
2018-05-23T00:48:54.077Z,19.30
2018-05-23T00:51:29.168Z,19.50
2018-05-23T00:54:05.023Z,19.60
2018-05-23T00:56:39.854Z,19.60
2018-05-23T00:59:15.631Z,19.50
2018-05-23T01:01:50.962Z,19.40
2018-05-23T01:04:26.514Z,19.30
2018-05-23T01:07:02.451Z,19.20
2018-05-23T01:09:37.596Z,19.10
2018-05-23T01:12:12.625Z,19.20
2018-05-23T01:14:47.865Z,19.30
2018-05-23T01:17:22.697Z,19.30
2018-05-23T01:19:58.347Z,19.20
2018-05-23T01:22:33.381Z,19.20
2018-05-23T01:25:09.338Z,19.10
2018-05-23T01:27:44.108Z,19.10
2018-05-23T01:30:19.202Z,19.10
2018-05-23T01:32:54.603Z,19.10
2018-05-23T01:35:29.993Z,19.10
2018-05-23T01:38:05.023Z,19.10
2018-05-23T01:40:40.678Z,19.10
2018-05-23T01:43:16.427Z,19.20
2018-05-23T01:45:53.102Z,19.20
2018-05-23T01:48:34.074Z,19.20
2018-05-23T01:51:09.262Z,19.10
2018-05-23T01:53:45.576Z,19.20
2018-05-23T01:56:20.816Z,19.20
2018-05-23T01:58:56.464Z,19.20
2018-05-23T02:01:31.711Z,19.10
2018-05-23T02:04:07.151Z,19.20
2018-05-23T02:06:43.218Z,19.40
2018-05-23T02:09:17.980Z,19.30
2018-05-23T02:11:53.917Z,19.30
2018-05-23T02:14:29.353Z,19.30
2018-05-23T02:17:05.092Z,19.50
2018-05-23T02:19:40.132Z,19.30
2018-05-23T02:22:16.230Z,19.20
2018-05-23T02:24:52.246Z,19.20
2018-05-23T02:27:29.124Z,19.30
2018-05-23T02:30:05.186Z,19.30
2018-05-23T02:32:40.837Z,19.40
2018-05-23T02:35:16.890Z,19.30
2018-05-23T02:37:52.540Z,19.30
2018-05-23T02:40:29.098Z,19.30
2018-05-23T02:43:05.164Z,19.30
2018-05-23T02:45:42.461Z,19.10
2018-05-23T02:48:18.828Z,19.10
2018-05-23T02:50:54.476Z,19.10
2018-05-23T02:53:30.123Z,19.10
2018-05-23T02:56:04.961Z,18.90
2018-05-23T02:58:39.942Z,19.00
2018-05-23T03:01:15.977Z,19.20
2018-05-23T03:03:51.602Z,19.30
2018-05-23T03:06:26.531Z,19.30
2018-05-23T03:09:01.357Z,19.20
2018-05-23T03:11:36.398Z,19.20
2018-05-23T03:14:12.210Z,19.30
2018-05-23T03:16:48.510Z,19.30
2018-05-23T03:19:24.375Z,19.30
2018-05-23T03:21:59.657Z,19.10
2018-05-23T03:27:15.514Z,19.20
2018-05-23T03:29:52.746Z,19.20
2018-05-23T03:32:27.575Z,19.20
2018-05-23T03:35:03.694Z,19.20
2018-05-23T03:37:40.573Z,19.10
2018-05-23T03:40:16.136Z,19.10
2018-05-23T03:42:52.184Z,19.20
2018-05-23T03:45:29.259Z,19.30
2018-05-23T03:48:04.088Z,19.30
2018-05-23T03:50:38.928Z,19.20
2018-05-23T03:53:14.159Z,19.10
2018-05-23T03:55:48.992Z,19.10
2018-05-23T03:58:24.876Z,19.10
2018-05-23T04:01:11.764Z,19.10
2018-05-23T04:03:58.593Z,19.10
2018-05-23T04:06:47.026Z,19.10
2018-05-23T04:09:23.286Z,19.10
2018-05-23T04:11:58.429Z,19.10
2018-05-23T04:14:34.176Z,19.00
2018-05-23T04:17:09.212Z,19.10
2018-05-23T04:19:44.178Z,19.00
2018-05-23T04:22:20.919Z,19.10
2018-05-23T04:24:56.572Z,19.10
2018-05-23T04:27:32.287Z,19.00
2018-05-23T04:30:07.872Z,19.10
2018-05-23T04:32:43.734Z,18.90
2018-05-23T04:35:19.573Z,18.90
2018-05-23T04:37:55.018Z,18.90
2018-05-23T04:40:30.667Z,19.10
2018-05-23T04:43:05.730Z,19.10
2018-05-23T04:45:41.356Z,19.10
2018-05-23T04:48:17.834Z,19.00
2018-05-23T04:50:53.471Z,19.00
2018-05-23T04:53:28.920Z,19.00
2018-05-23T04:56:04.164Z,18.90
2018-05-23T04:58:38.995Z,19.00
2018-05-23T05:01:14.546Z,19.10
2018-05-23T05:03:50.191Z,19.10
2018-05-23T05:06:25.332Z,19.10
2018-05-23T05:09:00.918Z,19.10
2018-05-23T05:11:37.443Z,19.10
2018-05-23T05:14:13.194Z,19.10
2018-05-23T05:16:49.646Z,19.10
2018-05-23T05:19:25.463Z,19.10
2018-05-23T05:22:01.120Z,19.10
2018-05-23T05:24:38.317Z,19.10
2018-05-23T05:27:13.708Z,19.10
2018-05-23T05:29:49.958Z,19.30
2018-05-23T05:32:25.404Z,19.30
2018-05-23T05:35:00.442Z,19.20
2018-05-23T05:37:35.483Z,19.30
2018-05-23T05:40:10.308Z,19.30
2018-05-23T05:42:45.951Z,19.50
2018-05-23T05:45:21.193Z,19.70
2018-05-23T05:47:57.262Z,19.80
2018-05-23T05:50:32.696Z,19.90
2018-05-23T05:53:08.254Z,19.90
2018-05-23T05:55:44.714Z,20.00
2018-05-23T05:58:19.543Z,20.00
2018-05-23T06:00:56.250Z,19.90
2018-05-23T06:03:31.360Z,19.90
2018-05-23T06:06:07.214Z,20.00
2018-05-23T06:08:43.087Z,19.90
2018-05-23T06:11:18.008Z,20.00
2018-05-23T06:13:53.093Z,20.10
2018-05-23T06:16:29.701Z,20.10
2018-05-23T06:19:04.737Z,20.00
2018-05-23T06:21:39.607Z,20.10
2018-05-23T06:24:15.154Z,20.40
2018-05-23T06:26:50.457Z,20.40
2018-05-23T06:29:26.108Z,20.40
2018-05-23T06:32:01.960Z,20.50
2018-05-23T06:34:37.116Z,20.60
2018-05-23T06:37:11.932Z,20.60
2018-05-23T06:39:46.966Z,20.50
2018-05-23T06:42:21.793Z,20.60
2018-05-23T06:44:56.836Z,20.70
2018-05-23T06:47:32.693Z,20.60
2018-05-23T06:50:07.690Z,20.60
2018-05-23T06:52:42.614Z,20.80
2018-05-23T06:55:17.486Z,20.90
2018-05-23T06:57:52.522Z,21.00
2018-05-23T07:00:27.761Z,21.00
2018-05-23T07:03:03.494Z,21.00
2018-05-23T07:05:40.288Z,20.90
2018-05-23T07:08:15.937Z,21.00
2018-05-23T07:10:51.218Z,21.10
2018-05-23T07:13:27.643Z,21.10
2018-05-23T07:16:04.319Z,21.10
2018-05-23T07:18:39.145Z,21.10
2018-05-23T07:21:15.559Z,22.00
2018-05-23T07:23:50.754Z,22.00
2018-05-23T07:26:25.583Z,23.20
2018-05-23T07:29:01.456Z,24.00
2018-05-23T07:31:38.110Z,26.60
2018-05-23T07:34:13.762Z,26.50
2018-05-23T07:36:48.799Z,27.10
2018-05-23T07:39:24.719Z,27.40
2018-05-23T07:42:00.306Z,27.80
2018-05-23T07:44:37.392Z,28.20
2018-05-23T07:47:13.373Z,27.30
2018-05-23T07:49:48.681Z,26.60
2018-05-23T07:52:24.544Z,26.60
2018-05-23T07:54:59.571Z,27.30
2018-05-23T07:57:35.426Z,28.30
2018-05-23T08:00:12.006Z,28.30
2018-05-23T08:02:47.147Z,28.30
2018-05-23T08:05:22.992Z,28.50
2018-05-23T08:07:59.605Z,28.00
2018-05-23T08:10:34.500Z,28.60
2018-05-23T08:13:09.532Z,28.10
2018-05-23T08:15:45.397Z,27.40
2018-05-23T08:18:21.652Z,28.10
2018-05-23T08:20:57.503Z,29.30
2018-05-23T08:23:32.743Z,28.60
2018-05-23T08:26:07.775Z,28.30
2018-05-23T08:28:42.809Z,30.10
2018-05-23T08:31:19.794Z,29.10
2018-05-23T08:34:00.884Z,28.80
2018-05-23T08:36:36.517Z,28.50
2018-05-23T08:39:11.961Z,27.80
2018-05-23T08:41:46.795Z,30.10
2018-05-23T08:44:21.627Z,30.90
2018-05-23T08:46:57.278Z,31.90
2018-05-23T08:49:32.925Z,29.80
2018-05-23T08:52:07.795Z,28.70
2018-05-23T08:54:42.791Z,28.70
2018-05-23T08:57:18.439Z,28.00
2018-05-23T08:59:54.096Z,28.50
2018-05-23T09:02:29.948Z,31.00
2018-05-23T09:05:05.419Z,31.50
2018-05-23T09:07:40.843Z,29.90
2018-05-23T09:10:15.664Z,30.10
2018-05-23T09:12:50.509Z,31.10
2018-05-23T09:15:26.912Z,30.60
2018-05-23T09:18:02.003Z,30.60
2018-05-23T09:20:38.269Z,29.30
2018-05-23T09:23:13.710Z,29.30
2018-05-23T09:25:49.363Z,31.00
2018-05-23T09:28:24.952Z,32.40
2018-05-23T09:31:00.652Z,30.80
2018-05-23T09:33:35.488Z,31.10
2018-05-23T09:36:10.324Z,31.10
2018-05-23T09:38:45.555Z,30.00
2018-05-23T09:41:21.209Z,29.80
2018-05-23T09:43:56.238Z,30.70
2018-05-23T09:46:31.898Z,30.10
2018-05-23T09:49:06.716Z,28.90
2018-05-23T09:51:42.368Z,28.50
2018-05-23T09:54:18.836Z,29.70
2018-05-23T09:56:53.667Z,29.70
2018-05-23T09:59:29.318Z,30.30
2018-05-23T10:02:04.315Z,30.20
2018-05-23T10:04:40.001Z,31.30
2018-05-23T10:07:15.853Z,31.50
2018-05-23T10:09:52.322Z,30.00
2018-05-23T10:12:27.360Z,30.00
2018-05-23T10:15:02.813Z,30.00
2018-05-23T10:17:39.068Z,32.10
2018-05-23T10:20:14.923Z,32.10
2018-05-23T10:22:50.579Z,32.30
2018-05-23T10:25:26.224Z,32.90
2018-05-23T10:28:01.461Z,32.40
2018-05-23T10:30:37.109Z,32.80
2018-05-23T10:33:11.944Z,32.50
2018-05-23T10:35:47.406Z,32.20
2018-05-23T10:38:22.537Z,33.40
2018-05-23T10:40:58.279Z,33.20
2018-05-23T10:43:33.518Z,32.40
2018-05-23T10:46:08.555Z,32.70
2018-05-23T10:48:44.210Z,31.20
2018-05-23T10:51:19.849Z,31.30
2018-05-23T10:53:54.679Z,31.90
2018-05-23T10:56:29.663Z,32.50
2018-05-23T10:59:05.363Z,33.50
2018-05-23T11:01:40.952Z,32.10
2018-05-23T11:04:16.609Z,32.40
2018-05-23T11:06:51.494Z,31.00
2018-05-23T11:09:27.687Z,32.30
2018-05-23T11:12:03.139Z,32.70
2018-05-23T11:14:38.859Z,32.70
2018-05-23T11:17:13.890Z,32.40
2018-05-23T11:19:49.541Z,32.80
2018-05-23T11:22:24.371Z,31.80
2018-05-23T11:25:00.019Z,30.60
2018-05-23T11:27:34.857Z,30.40
2018-05-23T11:30:10.431Z,31.70
2018-05-23T11:32:46.258Z,32.80
2018-05-23T11:35:21.078Z,32.90
2018-05-23T11:37:56.171Z,32.50
2018-05-23T11:40:32.179Z,32.20
2018-05-23T11:43:07.448Z,31.20
2018-05-23T11:45:42.348Z,32.50
2018-05-23T11:48:18.202Z,32.40
2018-05-23T11:50:53.788Z,32.40
2018-05-23T11:53:29.706Z,31.00
2018-05-23T11:56:05.196Z,30.60
2018-05-23T11:58:41.825Z,31.60
2018-05-23T12:01:16.757Z,31.60
2018-05-23T12:03:52.408Z,33.20
2018-05-23T12:06:30.264Z,31.40
2018-05-23T12:09:06.418Z,31.40
2018-05-23T12:11:41.659Z,30.90
2018-05-23T12:14:17.566Z,32.50
2018-05-23T12:16:52.906Z,32.40
2018-05-23T12:19:27.841Z,31.70
2018-05-23T12:22:03.491Z,32.20
2018-05-23T12:24:39.142Z,32.70
2018-05-23T12:27:14.889Z,32.40
2018-05-23T12:29:49.718Z,32.10
2018-05-23T12:32:25.472Z,32.50
2018-05-23T12:35:00.309Z,33.10
2018-05-23T12:37:36.159Z,33.30
2018-05-23T12:40:11.196Z,31.90
2018-05-23T12:42:46.991Z,32.60
2018-05-23T12:45:22.697Z,32.30
2018-05-23T12:47:58.549Z,31.20
2018-05-23T12:50:33.996Z,30.10
2018-05-23T12:53:09.643Z,30.80
2018-05-23T12:55:44.579Z,30.90
2018-05-23T12:58:20.232Z,31.80
2018-05-23T13:00:55.059Z,31.40
2018-05-23T13:03:29.907Z,32.10
2018-05-23T13:06:06.359Z,30.40
2018-05-23T13:08:42.315Z,28.50
2018-05-23T13:11:17.359Z,28.40
2018-05-23T13:13:53.000Z,28.10
2018-05-23T13:16:29.415Z,27.20
2018-05-23T13:19:04.299Z,27.20
2018-05-23T13:21:39.950Z,27.00
2018-05-23T13:24:17.031Z,26.60
2018-05-23T13:26:52.478Z,26.50
2018-05-23T13:29:28.124Z,26.20
2018-05-23T13:32:03.987Z,26.10
2018-05-23T13:34:39.730Z,26.00
2018-05-23T13:37:15.905Z,25.70
2018-05-23T13:39:51.650Z,25.30
2018-05-23T13:42:26.610Z,25.30
2018-05-23T13:45:02.328Z,25.30
2018-05-23T13:47:38.963Z,25.50
2018-05-23T13:50:14.041Z,25.50
2018-05-23T13:52:49.634Z,26.00
2018-05-23T13:55:25.337Z,26.20
2018-05-23T13:58:00.521Z,26.10
2018-05-23T14:00:35.815Z,26.00
2018-05-23T14:03:13.500Z,25.70
2018-05-23T14:05:49.168Z,25.70
2018-05-23T14:08:25.019Z,25.70
2018-05-23T14:11:00.793Z,25.80
2018-05-23T14:13:36.528Z,26.00
2018-05-23T14:16:12.787Z,26.00
2018-05-23T14:18:49.395Z,25.90
2018-05-23T14:21:24.708Z,25.90
2018-05-23T14:24:00.286Z,25.60
2018-05-23T14:26:35.177Z,25.50
2018-05-23T14:29:10.826Z,25.60
2018-05-23T14:31:45.592Z,25.50
2018-05-23T14:34:20.699Z,25.80
2018-05-23T14:36:55.524Z,25.80
2018-05-23T14:39:30.476Z,25.80
2018-05-23T14:42:05.493Z,25.80
2018-05-23T14:44:40.425Z,25.90
2018-05-23T14:47:15.256Z,25.80
2018-05-23T14:49:50.903Z,25.50
2018-05-23T14:52:26.553Z,25.70
2018-05-23T14:55:02.407Z,25.60
2018-05-23T14:57:37.801Z,25.70
2018-05-23T15:00:13.505Z,25.50
2018-05-23T15:02:48.376Z,25.40
2018-05-23T15:05:24.296Z,25.20
2018-05-23T15:07:59.939Z,25.10
2018-05-23T15:10:35.342Z,25.00
2018-05-23T15:13:11.862Z,25.30
2018-05-23T15:15:47.405Z,25.30
2018-05-23T15:18:25.876Z,25.30
2018-05-23T15:21:00.648Z,25.20
2018-05-23T15:23:35.409Z,25.10
2018-05-23T15:26:11.125Z,25.20
2018-05-23T15:28:46.980Z,25.10
2018-05-23T15:31:22.069Z,25.30
2018-05-23T15:33:58.381Z,25.10
2018-05-23T15:36:33.621Z,25.10
2018-05-23T15:39:09.272Z,24.90
2018-05-23T15:41:44.145Z,25.00
2018-05-23T15:44:19.957Z,25.20
2018-05-23T15:46:55.604Z,25.10
2018-05-23T15:49:31.254Z,25.00
2018-05-23T15:52:06.021Z,24.70
2018-05-23T15:54:41.735Z,24.80
2018-05-23T15:57:16.811Z,24.70
2018-05-23T15:59:51.599Z,24.70
2018-05-23T16:02:26.637Z,24.80
2018-05-23T16:05:01.671Z,24.60
2018-05-23T16:07:39.776Z,24.20
2018-05-23T16:10:15.019Z,24.20
2018-05-23T16:12:50.648Z,24.30
2018-05-23T16:15:26.317Z,24.50
2018-05-23T16:18:01.968Z,24.40
2018-05-23T16:20:37.861Z,24.40
2018-05-23T16:23:14.288Z,24.10
2018-05-23T16:25:49.228Z,24.00
2018-05-23T16:28:23.948Z,24.00
2018-05-23T16:30:58.782Z,24.00
2018-05-23T16:33:33.609Z,23.80
2018-05-23T16:36:08.450Z,24.00
2018-05-23T16:38:43.683Z,24.10
2018-05-23T16:41:19.138Z,23.90
2018-05-23T16:43:54.117Z,24.10
2018-05-23T16:46:29.815Z,24.00
2018-05-23T16:49:05.459Z,24.00
2018-05-23T16:51:41.864Z,23.50
2018-05-23T16:54:17.184Z,23.50
2018-05-23T16:56:52.822Z,23.70
2018-05-23T16:59:28.427Z,23.80
2018-05-23T17:02:03.501Z,23.60
2018-05-23T17:04:38.283Z,23.40
2018-05-23T17:07:15.415Z,23.50
2018-05-23T17:09:50.801Z,23.50
2018-05-23T17:12:25.777Z,23.40
2018-05-23T17:15:01.499Z,23.30
2018-05-23T17:17:36.183Z,23.40
2018-05-23T17:20:11.006Z,23.40
2018-05-23T17:22:45.729Z,23.10
2018-05-23T17:25:20.811Z,23.10
2018-05-23T17:27:57.132Z,23.50
2018-05-23T17:30:32.176Z,23.50
2018-05-23T17:33:06.949Z,23.40
2018-05-23T17:35:44.701Z,23.20
2018-05-23T17:38:20.310Z,23.00
2018-05-23T17:40:55.995Z,22.80
2018-05-23T17:43:31.850Z,22.80
2018-05-23T17:46:06.678Z,22.80
2018-05-23T17:48:42.341Z,23.00
2018-05-23T17:51:18.182Z,23.10
2018-05-23T17:53:54.652Z,23.10
2018-05-23T17:56:29.893Z,23.00
2018-05-23T17:59:06.775Z,23.10
2018-05-23T18:01:43.284Z,23.10
2018-05-23T18:04:20.075Z,22.80
2018-05-23T18:06:55.990Z,22.90
2018-05-23T18:12:34.729Z,22.80
2018-05-23T18:15:10.160Z,22.60
2018-05-23T18:17:45.027Z,22.60
2018-05-23T18:20:20.635Z,22.70
2018-05-23T18:22:56.497Z,22.50
2018-05-23T18:25:31.525Z,22.50
2018-05-23T18:28:06.560Z,22.30
2018-05-23T18:30:42.225Z,22.10
2018-05-23T18:33:17.075Z,21.90
2018-05-23T18:35:52.700Z,21.90
2018-05-23T18:38:27.532Z,22.00
2018-05-23T18:41:03.530Z,22.00
2018-05-23T18:43:39.034Z,21.90
2018-05-23T18:46:13.820Z,21.90
2018-05-23T18:48:49.609Z,22.00
2018-05-23T18:51:24.437Z,22.00
2018-05-23T18:53:59.472Z,22.20
2018-05-23T18:56:36.558Z,22.10
2018-05-23T18:59:11.809Z,22.10
2018-05-23T19:01:46.840Z,22.10
2018-05-23T19:04:22.428Z,21.90
2018-05-23T19:06:58.147Z,21.90
2018-05-23T19:09:34.394Z,22.00
2018-05-23T19:12:09.644Z,21.90
2018-05-23T19:14:44.773Z,21.90
2018-05-23T19:17:19.607Z,21.80
2018-05-23T19:19:56.182Z,21.80
2018-05-23T19:22:30.901Z,21.70
2018-05-23T19:25:05.667Z,21.60
2018-05-23T19:27:41.674Z,21.40
2018-05-23T19:30:18.220Z,21.30
2018-05-23T19:35:57.826Z,21.10
2018-05-23T19:38:32.871Z,21.10
2018-05-23T19:41:08.729Z,21.10
2018-05-23T19:43:44.571Z,21.10
2018-05-23T19:46:20.352Z,21.10
2018-05-23T19:48:55.456Z,21.10
2018-05-23T19:51:31.312Z,21.10
2018-05-23T19:54:06.758Z,21.00
2018-05-23T19:56:42.560Z,21.20
2018-05-23T19:59:19.079Z,21.30
2018-05-23T20:01:54.262Z,21.30
2018-05-23T20:04:28.989Z,21.30
2018-05-23T20:07:05.005Z,21.20
2018-05-23T20:09:40.858Z,21.20
2018-05-23T20:12:16.509Z,21.00
2018-05-23T20:14:51.553Z,20.90
2018-05-23T20:17:30.878Z,20.90
2018-05-23T20:20:07.553Z,20.90
2018-05-23T20:22:42.997Z,21.20
2018-05-23T20:25:18.035Z,21.10
2018-05-23T20:27:53.846Z,21.00
2018-05-23T20:30:29.547Z,20.90
2018-05-23T20:33:05.399Z,20.80
2018-05-23T20:35:40.839Z,20.80
2018-05-23T20:38:18.091Z,20.90
2018-05-23T20:40:57.052Z,20.90
2018-05-23T20:43:35.992Z,21.00
2018-05-23T20:46:10.980Z,21.00
2018-05-23T20:48:47.278Z,21.00
2018-05-23T20:51:22.920Z,21.00
2018-05-23T20:53:59.410Z,21.00
2018-05-23T20:56:34.841Z,20.90
2018-05-23T20:59:09.875Z,21.10
2018-05-23T21:01:47.163Z,21.00
2018-05-23T21:04:23.370Z,21.00
2018-05-23T21:06:59.491Z,21.00
2018-05-23T21:09:34.319Z,21.00
2018-05-23T21:12:09.358Z,21.00
2018-05-23T21:14:45.836Z,21.00
2018-05-23T21:17:21.205Z,20.90
2018-05-23T21:19:57.531Z,21.00
2018-05-23T21:22:34.198Z,21.00
2018-05-23T21:25:09.397Z,20.90
2018-05-23T21:27:45.522Z,20.90
2018-05-23T21:33:25.878Z,20.70
2018-05-23T21:36:00.710Z,20.70
2018-05-23T21:38:35.753Z,20.70
2018-05-23T21:41:11.397Z,20.70
2018-05-23T21:43:47.053Z,20.70
2018-05-23T21:46:27.591Z,20.70
2018-05-23T21:49:03.275Z,20.70
2018-05-23T21:51:39.218Z,20.70
2018-05-23T21:54:16.337Z,20.70
2018-05-23T21:56:51.647Z,20.70
2018-05-23T21:59:27.063Z,20.70
2018-05-23T22:02:03.704Z,20.60
2018-05-23T22:04:41.192Z,20.60
2018-05-23T22:07:16.906Z,20.60
2018-05-23T22:09:51.938Z,20.60
2018-05-23T22:12:27.323Z,20.60
2018-05-23T22:15:04.054Z,20.80
2018-05-23T22:17:39.712Z,20.80
2018-05-23T22:20:14.476Z,20.70
2018-05-23T22:22:50.564Z,20.60
2018-05-23T22:25:25.221Z,20.60
2018-05-23T22:28:00.051Z,20.50
2018-05-23T22:30:35.731Z,20.40
2018-05-23T22:33:11.350Z,20.40
2018-05-23T22:35:47.625Z,20.40
2018-05-23T22:38:23.015Z,20.40
2018-05-23T22:40:59.529Z,20.40
2018-05-23T22:43:34.256Z,20.40
2018-05-23T22:46:10.723Z,20.40
2018-05-23T22:48:45.760Z,20.30
2018-05-23T22:51:21.207Z,20.30
2018-05-23T22:53:57.068Z,20.40
2018-05-23T22:56:31.892Z,20.40
2018-05-23T22:59:07.746Z,20.40
2018-05-23T23:01:42.574Z,20.40
2018-05-23T23:04:17.610Z,20.40
2018-05-23T23:06:53.257Z,20.50
2018-05-23T23:09:28.294Z,20.50
2018-05-23T23:12:03.740Z,20.60
2018-05-23T23:17:43.199Z,20.50
2018-05-23T23:20:19.359Z,20.50
2018-05-23T23:22:55.829Z,20.50
2018-05-23T23:25:32.398Z,20.40
2018-05-23T23:28:10.923Z,20.40
2018-05-23T23:30:45.950Z,20.40
2018-05-23T23:33:22.357Z,20.50
2018-05-23T23:35:58.274Z,20.40
2018-05-23T23:38:34.545Z,20.40
2018-05-23T23:41:10.196Z,20.40
2018-05-23T23:43:45.024Z,20.40
2018-05-23T23:46:20.265Z,20.40
2018-05-23T23:48:55.702Z,20.50
2018-05-23T23:51:31.352Z,20.70
2018-05-23T23:54:06.183Z,20.60
2018-05-23T23:56:40.987Z,20.50
2018-05-23T23:59:15.847Z,20.50
